sensor_id;sensor_type;location;lat;lon;timestamp;P1;durP1;ratioP1;P2;durP2;ratioP2
67640;SDS011;54434;50.096;20.082;2023-03-02T00:00:01;108.70;;;39.10;;
67640;SDS011;54434;50.096;20.082;2023-03-02T00:03:04;104.20;;;38.80;;
67640;SDS011;54434;50.096;20.082;2023-03-02T00:05:42;105.50;;;40.10;;
67640;SDS011;54434;50.096;20.082;2023-03-02T00:08:20;109.80;;;39.80;;
67640;SDS011;54434;50.096;20.082;2023-03-02T00:10:58;107.70;;;41.20;;
67640;SDS011;54434;50.096;20.082;2023-03-02T00:13:36;112.80;;;38.50;;
67640;SDS011;54434;50.096;20.082;2023-03-02T00:16:13;117.00;;;40.30;;
67640;SDS011;54434;50.096;20.082;2023-03-02T00:18:50;112.40;;;40.20;;
67640;SDS011;54434;50.096;20.082;2023-03-02T00:21:26;101.90;;;39.10;;
67640;SDS011;54434;50.096;20.082;2023-03-02T00:24:04;107.10;;;40.90;;
67640;SDS011;54434;50.096;20.082;2023-03-02T00:26:42;112.90;;;41.30;;
67640;SDS011;54434;50.096;20.082;2023-03-02T00:29:18;110.00;;;41.20;;
67640;SDS011;54434;50.096;20.082;2023-03-02T00:31:54;112.80;;;41.60;;
67640;SDS011;54434;50.096;20.082;2023-03-02T00:34:31;105.30;;;40.60;;
67640;SDS011;54434;50.096;20.082;2023-03-02T00:37:07;115.60;;;41.40;;
67640;SDS011;54434;50.096;20.082;2023-03-02T00:39:44;110.30;;;41.40;;
67640;SDS011;54434;50.096;20.082;2023-03-02T00:42:21;102.40;;;40.50;;
67640;SDS011;54434;50.096;20.082;2023-03-02T00:44:57;110.60;;;41.20;;
67640;SDS011;54434;50.096;20.082;2023-03-02T00:47:37;116.00;;;41.70;;
67640;SDS011;54434;50.096;20.082;2023-03-02T00:50:14;114.20;;;40.90;;
67640;SDS011;54434;50.096;20.082;2023-03-02T00:52:51;106.40;;;42.00;;
67640;SDS011;54434;50.096;20.082;2023-03-02T00:55:28;110.00;;;42.30;;
67640;SDS011;54434;50.096;20.082;2023-03-02T00:58:05;120.50;;;43.20;;
67640;SDS011;54434;50.096;20.082;2023-03-02T01:00:42;113.10;;;41.50;;
67640;SDS011;54434;50.096;20.082;2023-03-02T01:03:19;110.90;;;40.60;;
67640;SDS011;54434;50.096;20.082;2023-03-02T01:05:56;115.30;;;40.60;;
67640;SDS011;54434;50.096;20.082;2023-03-02T01:08:33;112.00;;;38.80;;
67640;SDS011;54434;50.096;20.082;2023-03-02T01:11:17;111.70;;;40.10;;
67640;SDS011;54434;50.096;20.082;2023-03-02T01:13:56;114.10;;;39.50;;
67640;SDS011;54434;50.096;20.082;2023-03-02T01:16:34;120.30;;;42.20;;
67640;SDS011;54434;50.096;20.082;2023-03-02T01:19:11;114.30;;;40.80;;
67640;SDS011;54434;50.096;20.082;2023-03-02T01:21:48;110.20;;;39.50;;
67640;SDS011;54434;50.096;20.082;2023-03-02T01:24:25;114.50;;;38.30;;
67640;SDS011;54434;50.096;20.082;2023-03-02T01:27:02;112.30;;;38.60;;
67640;SDS011;54434;50.096;20.082;2023-03-02T01:29:39;107.70;;;39.20;;
67640;SDS011;54434;50.096;20.082;2023-03-02T01:32:15;103.00;;;38.60;;
67640;SDS011;54434;50.096;20.082;2023-03-02T01:34:53;113.10;;;39.20;;
67640;SDS011;54434;50.096;20.082;2023-03-02T01:37:29;117.60;;;40.10;;
67640;SDS011;54434;50.096;20.082;2023-03-02T01:40:09;109.80;;;38.80;;
67640;SDS011;54434;50.096;20.082;2023-03-02T01:42:59;114.00;;;38.50;;
67640;SDS011;54434;50.096;20.082;2023-03-02T01:45:55;97.60;;;37.90;;
67640;SDS011;54434;50.096;20.082;2023-03-02T01:48:52;109.00;;;38.20;;
67640;SDS011;54434;50.096;20.082;2023-03-02T01:51:47;108.10;;;37.10;;
67640;SDS011;54434;50.096;20.082;2023-03-02T01:54:25;108.70;;;38.00;;
67640;SDS011;54434;50.096;20.082;2023-03-02T01:57:06;101.10;;;39.00;;
67640;SDS011;54434;50.096;20.082;2023-03-02T01:59:43;110.60;;;40.70;;
67640;SDS011;54434;50.096;20.082;2023-03-02T02:02:21;108.60;;;40.70;;
67640;SDS011;54434;50.096;20.082;2023-03-02T02:04:58;107.80;;;41.80;;
67640;SDS011;54434;50.096;20.082;2023-03-02T02:07:36;107.70;;;40.00;;
67640;SDS011;54434;50.096;20.082;2023-03-02T02:10:14;101.10;;;39.70;;
67640;SDS011;54434;50.096;20.082;2023-03-02T02:12:50;107.30;;;38.70;;
67640;SDS011;54434;50.096;20.082;2023-03-02T02:15:27;100.50;;;38.50;;
67640;SDS011;54434;50.096;20.082;2023-03-02T02:18:04;106.70;;;38.40;;
67640;SDS011;54434;50.096;20.082;2023-03-02T02:20:43;107.50;;;38.80;;
67640;SDS011;54434;50.096;20.082;2023-03-02T02:23:28;108.70;;;39.60;;
67640;SDS011;54434;50.096;20.082;2023-03-02T02:26:24;105.30;;;39.30;;
67640;SDS011;54434;50.096;20.082;2023-03-02T02:29:06;98.60;;;37.30;;
67640;SDS011;54434;50.096;20.082;2023-03-02T02:31:52;97.40;;;35.60;;
67640;SDS011;54434;50.096;20.082;2023-03-02T02:34:36;96.40;;;35.00;;
67640;SDS011;54434;50.096;20.082;2023-03-02T02:37:21;100.30;;;36.50;;
67640;SDS011;54434;50.096;20.082;2023-03-02T02:40:03;93.50;;;36.00;;
67640;SDS011;54434;50.096;20.082;2023-03-02T02:42:48;107.80;;;35.80;;
67640;SDS011;54434;50.096;20.082;2023-03-02T02:45:27;96.60;;;34.40;;
67640;SDS011;54434;50.096;20.082;2023-03-02T02:48:04;103.30;;;36.20;;
67640;SDS011;54434;50.096;20.082;2023-03-02T02:50:45;95.30;;;37.20;;
67640;SDS011;54434;50.096;20.082;2023-03-02T02:53:31;94.60;;;36.20;;
67640;SDS011;54434;50.096;20.082;2023-03-02T02:56:15;90.00;;;35.40;;
67640;SDS011;54434;50.096;20.082;2023-03-02T02:58:54;98.40;;;37.40;;
67640;SDS011;54434;50.096;20.082;2023-03-02T03:01:34;93.80;;;36.80;;
67640;SDS011;54434;50.096;20.082;2023-03-02T03:04:16;104.90;;;37.30;;
67640;SDS011;54434;50.096;20.082;2023-03-02T03:06:57;95.80;;;36.70;;
67640;SDS011;54434;50.096;20.082;2023-03-02T03:09:35;112.90;;;37.20;;
67640;SDS011;54434;50.096;20.082;2023-03-02T03:12:15;98.50;;;36.20;;
67640;SDS011;54434;50.096;20.082;2023-03-02T03:14:54;105.70;;;37.20;;
67640;SDS011;54434;50.096;20.082;2023-03-02T03:17:32;106.90;;;37.10;;
67640;SDS011;54434;50.096;20.082;2023-03-02T03:20:13;107.20;;;38.30;;
67640;SDS011;54434;50.096;20.082;2023-03-02T03:22:51;104.10;;;38.50;;
67640;SDS011;54434;50.096;20.082;2023-03-02T03:25:28;101.90;;;36.50;;
67640;SDS011;54434;50.096;20.082;2023-03-02T03:28:07;104.90;;;36.60;;
67640;SDS011;54434;50.096;20.082;2023-03-02T03:30:44;95.10;;;37.00;;
67640;SDS011;54434;50.096;20.082;2023-03-02T03:33:20;94.20;;;36.80;;
67640;SDS011;54434;50.096;20.082;2023-03-02T03:35:57;96.40;;;36.40;;
67640;SDS011;54434;50.096;20.082;2023-03-02T03:38:36;98.10;;;35.30;;
67640;SDS011;54434;50.096;20.082;2023-03-02T03:41:12;105.00;;;36.20;;
67640;SDS011;54434;50.096;20.082;2023-03-02T03:43:49;86.10;;;34.70;;
67640;SDS011;54434;50.096;20.082;2023-03-02T03:46:26;91.60;;;35.30;;
67640;SDS011;54434;50.096;20.082;2023-03-02T03:49:05;90.10;;;33.30;;
67640;SDS011;54434;50.096;20.082;2023-03-02T03:51:42;91.40;;;33.50;;
67640;SDS011;54434;50.096;20.082;2023-03-02T03:54:19;83.40;;;32.60;;
67640;SDS011;54434;50.096;20.082;2023-03-02T03:56:56;91.00;;;33.50;;
67640;SDS011;54434;50.096;20.082;2023-03-02T03:59:33;88.70;;;34.40;;
67640;SDS011;54434;50.096;20.082;2023-03-02T04:02:10;94.30;;;34.70;;
67640;SDS011;54434;50.096;20.082;2023-03-02T04:04:48;88.40;;;31.20;;
67640;SDS011;54434;50.096;20.082;2023-03-02T04:07:24;89.70;;;33.60;;
67640;SDS011;54434;50.096;20.082;2023-03-02T04:10:01;99.10;;;33.60;;
67640;SDS011;54434;50.096;20.082;2023-03-02T04:12:41;91.00;;;34.50;;
67640;SDS011;54434;50.096;20.082;2023-03-02T04:15:18;90.90;;;35.20;;
67640;SDS011;54434;50.096;20.082;2023-03-02T04:17:56;97.80;;;33.30;;
67640;SDS011;54434;50.096;20.082;2023-03-02T04:20:33;89.40;;;32.70;;
67640;SDS011;54434;50.096;20.082;2023-03-02T04:23:10;87.70;;;32.40;;
67640;SDS011;54434;50.096;20.082;2023-03-02T04:25:47;87.70;;;31.40;;
67640;SDS011;54434;50.096;20.082;2023-03-02T04:28:26;91.40;;;33.20;;
67640;SDS011;54434;50.096;20.082;2023-03-02T04:31:03;89.50;;;33.20;;
67640;SDS011;54434;50.096;20.082;2023-03-02T04:33:40;95.50;;;32.20;;
67640;SDS011;54434;50.096;20.082;2023-03-02T04:36:16;94.10;;;31.80;;
67640;SDS011;54434;50.096;20.082;2023-03-02T04:38:53;88.30;;;31.50;;
67640;SDS011;54434;50.096;20.082;2023-03-02T04:41:29;87.20;;;34.60;;
67640;SDS011;54434;50.096;20.082;2023-03-02T04:44:07;91.60;;;32.90;;
67640;SDS011;54434;50.096;20.082;2023-03-02T04:46:43;93.00;;;32.70;;
67640;SDS011;54434;50.096;20.082;2023-03-02T04:49:21;95.30;;;33.90;;
67640;SDS011;54434;50.096;20.082;2023-03-02T04:51:58;89.90;;;33.30;;
67640;SDS011;54434;50.096;20.082;2023-03-02T04:54:35;86.40;;;33.20;;
67640;SDS011;54434;50.096;20.082;2023-03-02T04:57:11;95.60;;;33.90;;
67640;SDS011;54434;50.096;20.082;2023-03-02T04:59:47;92.90;;;34.30;;
67640;SDS011;54434;50.096;20.082;2023-03-02T05:02:24;87.40;;;35.00;;
67640;SDS011;54434;50.096;20.082;2023-03-02T05:05:00;90.00;;;34.10;;
67640;SDS011;54434;50.096;20.082;2023-03-02T05:07:37;82.40;;;33.00;;
67640;SDS011;54434;50.096;20.082;2023-03-02T05:12:51;92.50;;;34.10;;
67640;SDS011;54434;50.096;20.082;2023-03-02T05:15:32;84.10;;;32.70;;
67640;SDS011;54434;50.096;20.082;2023-03-02T05:18:11;93.70;;;33.10;;
67640;SDS011;54434;50.096;20.082;2023-03-02T05:20:47;91.10;;;34.80;;
67640;SDS011;54434;50.096;20.082;2023-03-02T05:23:25;93.20;;;35.10;;
67640;SDS011;54434;50.096;20.082;2023-03-02T05:26:04;90.90;;;37.20;;
67640;SDS011;54434;50.096;20.082;2023-03-02T05:28:41;95.80;;;35.60;;
67640;SDS011;54434;50.096;20.082;2023-03-02T05:31:22;90.30;;;36.00;;
67640;SDS011;54434;50.096;20.082;2023-03-02T05:34:04;86.00;;;33.60;;
67640;SDS011;54434;50.096;20.082;2023-03-02T05:36:44;86.30;;;34.20;;
67640;SDS011;54434;50.096;20.082;2023-03-02T05:39:20;94.80;;;36.10;;
67640;SDS011;54434;50.096;20.082;2023-03-02T05:41:56;95.80;;;35.50;;
67640;SDS011;54434;50.096;20.082;2023-03-02T05:44:32;95.30;;;34.90;;
67640;SDS011;54434;50.096;20.082;2023-03-02T05:47:09;98.70;;;35.30;;
67640;SDS011;54434;50.096;20.082;2023-03-02T05:49:46;89.80;;;34.80;;
67640;SDS011;54434;50.096;20.082;2023-03-02T05:52:22;96.40;;;34.70;;
67640;SDS011;54434;50.096;20.082;2023-03-02T05:54:59;97.40;;;35.50;;
67640;SDS011;54434;50.096;20.082;2023-03-02T05:57:36;98.80;;;34.70;;
67640;SDS011;54434;50.096;20.082;2023-03-02T06:00:14;102.80;;;35.60;;
67640;SDS011;54434;50.096;20.082;2023-03-02T06:02:52;97.20;;;34.30;;
67640;SDS011;54434;50.096;20.082;2023-03-02T06:05:30;99.60;;;35.70;;
67640;SDS011;54434;50.096;20.082;2023-03-02T06:08:07;88.30;;;34.30;;
67640;SDS011;54434;50.096;20.082;2023-03-02T06:10:43;97.80;;;35.80;;
67640;SDS011;54434;50.096;20.082;2023-03-02T06:13:19;99.70;;;37.80;;
67640;SDS011;54434;50.096;20.082;2023-03-02T06:15:56;108.00;;;40.60;;
67640;SDS011;54434;50.096;20.082;2023-03-02T06:18:33;88.60;;;36.10;;
67640;SDS011;54434;50.096;20.082;2023-03-02T06:21:13;89.90;;;38.10;;
67640;SDS011;54434;50.096;20.082;2023-03-02T06:23:50;98.70;;;37.20;;
67640;SDS011;54434;50.096;20.082;2023-03-02T06:26:27;86.40;;;36.40;;
67640;SDS011;54434;50.096;20.082;2023-03-02T06:29:04;93.90;;;36.20;;
67640;SDS011;54434;50.096;20.082;2023-03-02T06:31:40;80.50;;;34.80;;
67640;SDS011;54434;50.096;20.082;2023-03-02T06:34:17;75.90;;;34.20;;
67640;SDS011;54434;50.096;20.082;2023-03-02T06:36:54;84.80;;;35.40;;
67640;SDS011;54434;50.096;20.082;2023-03-02T06:39:30;84.80;;;33.90;;
67640;SDS011;54434;50.096;20.082;2023-03-02T06:42:07;83.40;;;34.30;;
67640;SDS011;54434;50.096;20.082;2023-03-02T06:44:43;86.10;;;34.90;;
67640;SDS011;54434;50.096;20.082;2023-03-02T06:47:21;84.90;;;35.90;;
67640;SDS011;54434;50.096;20.082;2023-03-02T06:49:58;84.40;;;35.00;;
67640;SDS011;54434;50.096;20.082;2023-03-02T06:52:34;78.20;;;34.90;;
67640;SDS011;54434;50.096;20.082;2023-03-02T06:55:12;86.30;;;35.20;;
67640;SDS011;54434;50.096;20.082;2023-03-02T06:57:49;78.10;;;34.50;;
67640;SDS011;54434;50.096;20.082;2023-03-02T07:00:26;77.50;;;33.50;;
67640;SDS011;54434;50.096;20.082;2023-03-02T07:03:03;79.60;;;32.70;;
67640;SDS011;54434;50.096;20.082;2023-03-02T07:05:40;78.80;;;34.40;;
67640;SDS011;54434;50.096;20.082;2023-03-02T07:08:18;87.20;;;37.00;;
67640;SDS011;54434;50.096;20.082;2023-03-02T07:10:55;82.00;;;34.00;;
67640;SDS011;54434;50.096;20.082;2023-03-02T07:13:32;74.90;;;34.30;;
67640;SDS011;54434;50.096;20.082;2023-03-02T07:16:13;88.90;;;36.80;;
67640;SDS011;54434;50.096;20.082;2023-03-02T07:18:51;95.90;;;40.70;;
67640;SDS011;54434;50.096;20.082;2023-03-02T07:21:27;101.30;;;41.50;;
67640;SDS011;54434;50.096;20.082;2023-03-02T07:24:05;97.00;;;39.40;;
67640;SDS011;54434;50.096;20.082;2023-03-02T07:26:42;116.30;;;42.20;;
67640;SDS011;54434;50.096;20.082;2023-03-02T07:29:18;88.80;;;39.60;;
67640;SDS011;54434;50.096;20.082;2023-03-02T07:31:59;103.70;;;39.90;;
67640;SDS011;54434;50.096;20.082;2023-03-02T07:34:39;98.40;;;39.10;;
67640;SDS011;54434;50.096;20.082;2023-03-02T07:37:15;80.00;;;33.20;;
67640;SDS011;54434;50.096;20.082;2023-03-02T07:39:52;76.70;;;33.00;;
67640;SDS011;54434;50.096;20.082;2023-03-02T07:42:30;75.50;;;34.60;;
67640;SDS011;54434;50.096;20.082;2023-03-02T07:45:10;78.70;;;36.80;;
67640;SDS011;54434;50.096;20.082;2023-03-02T07:47:49;75.40;;;34.90;;
67640;SDS011;54434;50.096;20.082;2023-03-02T07:50:25;74.50;;;35.10;;
67640;SDS011;54434;50.096;20.082;2023-03-02T07:53:02;80.50;;;36.70;;
67640;SDS011;54434;50.096;20.082;2023-03-02T07:55:42;72.70;;;36.90;;
67640;SDS011;54434;50.096;20.082;2023-03-02T07:58:18;79.40;;;38.00;;
67640;SDS011;54434;50.096;20.082;2023-03-02T08:00:56;66.10;;;34.00;;
67640;SDS011;54434;50.096;20.082;2023-03-02T08:03:33;101.80;;;46.70;;
67640;SDS011;54434;50.096;20.082;2023-03-02T08:06:11;71.40;;;35.30;;
67640;SDS011;54434;50.096;20.082;2023-03-02T08:08:48;64.00;;;32.20;;
67640;SDS011;54434;50.096;20.082;2023-03-02T08:11:24;62.60;;;32.50;;
67640;SDS011;54434;50.096;20.082;2023-03-02T08:14:03;63.50;;;32.50;;
67640;SDS011;54434;50.096;20.082;2023-03-02T08:16:40;69.30;;;33.60;;
67640;SDS011;54434;50.096;20.082;2023-03-02T08:19:17;65.50;;;33.60;;
67640;SDS011;54434;50.096;20.082;2023-03-02T08:21:53;67.90;;;33.40;;
67640;SDS011;54434;50.096;20.082;2023-03-02T08:24:31;94.60;;;45.70;;
67640;SDS011;54434;50.096;20.082;2023-03-02T08:27:08;64.50;;;32.90;;
67640;SDS011;54434;50.096;20.082;2023-03-02T08:29:48;63.40;;;31.90;;
67640;SDS011;54434;50.096;20.082;2023-03-02T08:32:26;62.50;;;33.80;;
67640;SDS011;54434;50.096;20.082;2023-03-02T08:35:03;57.80;;;30.30;;
67640;SDS011;54434;50.096;20.082;2023-03-02T08:37:41;60.80;;;32.10;;
67640;SDS011;54434;50.096;20.082;2023-03-02T08:40:17;58.40;;;30.90;;
67640;SDS011;54434;50.096;20.082;2023-03-02T08:42:54;58.90;;;32.10;;
67640;SDS011;54434;50.096;20.082;2023-03-02T08:45:31;62.90;;;31.50;;
67640;SDS011;54434;50.096;20.082;2023-03-02T08:48:09;59.70;;;29.60;;
67640;SDS011;54434;50.096;20.082;2023-03-02T08:50:45;145.90;;;65.80;;
67640;SDS011;54434;50.096;20.082;2023-03-02T08:53:33;53.60;;;29.50;;
67640;SDS011;54434;50.096;20.082;2023-03-02T08:56:20;57.30;;;28.60;;
67640;SDS011;54434;50.096;20.082;2023-03-02T08:59:02;59.40;;;28.60;;
67640;SDS011;54434;50.096;20.082;2023-03-02T09:01:41;59.10;;;28.90;;
67640;SDS011;54434;50.096;20.082;2023-03-02T09:04:17;49.50;;;28.00;;
67640;SDS011;54434;50.096;20.082;2023-03-02T09:06:54;60.60;;;29.10;;
67640;SDS011;54434;50.096;20.082;2023-03-02T09:09:30;51.80;;;25.30;;
67640;SDS011;54434;50.096;20.082;2023-03-02T09:12:07;52.10;;;25.80;;
67640;SDS011;54434;50.096;20.082;2023-03-02T09:14:43;58.90;;;26.60;;
67640;SDS011;54434;50.096;20.082;2023-03-02T09:17:20;68.90;;;32.00;;
67640;SDS011;54434;50.096;20.082;2023-03-02T09:19:56;65.60;;;29.10;;
67640;SDS011;54434;50.096;20.082;2023-03-02T09:22:33;53.60;;;28.80;;
67640;SDS011;54434;50.096;20.082;2023-03-02T09:25:10;54.60;;;26.50;;
67640;SDS011;54434;50.096;20.082;2023-03-02T09:27:47;48.40;;;24.70;;
67640;SDS011;54434;50.096;20.082;2023-03-02T09:30:23;57.30;;;26.60;;
67640;SDS011;54434;50.096;20.082;2023-03-02T09:33:00;55.20;;;26.40;;
67640;SDS011;54434;50.096;20.082;2023-03-02T09:35:38;52.00;;;24.10;;
67640;SDS011;54434;50.096;20.082;2023-03-02T09:38:16;55.80;;;24.80;;
67640;SDS011;54434;50.096;20.082;2023-03-02T09:41:11;44.20;;;22.70;;
67640;SDS011;54434;50.096;20.082;2023-03-02T09:44:15;45.40;;;22.70;;
67640;SDS011;54434;50.096;20.082;2023-03-02T09:47:18;46.90;;;23.30;;
67640;SDS011;54434;50.096;20.082;2023-03-02T09:50:25;45.00;;;22.80;;
67640;SDS011;54434;50.096;20.082;2023-03-02T09:53:36;52.50;;;26.10;;
67640;SDS011;54434;50.096;20.082;2023-03-02T09:56:19;49.20;;;23.80;;
67640;SDS011;54434;50.096;20.082;2023-03-02T09:58:59;48.70;;;24.50;;
67640;SDS011;54434;50.096;20.082;2023-03-02T10:01:46;54.10;;;22.40;;
67640;SDS011;54434;50.096;20.082;2023-03-02T10:04:28;45.20;;;21.00;;
67640;SDS011;54434;50.096;20.082;2023-03-02T10:07:18;46.40;;;23.10;;
67640;SDS011;54434;50.096;20.082;2023-03-02T10:10:03;40.10;;;21.50;;
67640;SDS011;54434;50.096;20.082;2023-03-02T10:12:58;46.80;;;23.00;;
67640;SDS011;54434;50.096;20.082;2023-03-02T10:15:58;47.30;;;22.40;;
67640;SDS011;54434;50.096;20.082;2023-03-02T10:18:48;41.00;;;20.20;;
67640;SDS011;54434;50.096;20.082;2023-03-02T10:21:35;44.80;;;22.60;;
67640;SDS011;54434;50.096;20.082;2023-03-02T10:24:25;61.20;;;29.80;;
67640;SDS011;54434;50.096;20.082;2023-03-02T10:27:16;43.00;;;22.30;;
67640;SDS011;54434;50.096;20.082;2023-03-02T10:30:04;48.50;;;22.20;;
67640;SDS011;54434;50.096;20.082;2023-03-02T10:32:51;39.40;;;21.40;;
67640;SDS011;54434;50.096;20.082;2023-03-02T10:35:31;40.00;;;20.30;;
67640;SDS011;54434;50.096;20.082;2023-03-02T10:38:16;44.50;;;20.50;;
67640;SDS011;54434;50.096;20.082;2023-03-02T10:40:57;36.00;;;18.80;;
67640;SDS011;54434;50.096;20.082;2023-03-02T10:43:43;41.90;;;19.30;;
67640;SDS011;54434;50.096;20.082;2023-03-02T10:46:22;39.30;;;19.60;;
67640;SDS011;54434;50.096;20.082;2023-03-02T10:48:59;36.30;;;18.10;;
67640;SDS011;54434;50.096;20.082;2023-03-02T10:51:35;46.60;;;20.00;;
67640;SDS011;54434;50.096;20.082;2023-03-02T10:54:13;42.80;;;21.20;;
67640;SDS011;54434;50.096;20.082;2023-03-02T10:56:54;39.20;;;19.30;;
67640;SDS011;54434;50.096;20.082;2023-03-02T10:59:46;41.80;;;19.30;;
67640;SDS011;54434;50.096;20.082;2023-03-02T11:02:25;41.50;;;18.10;;
67640;SDS011;54434;50.096;20.082;2023-03-02T11:05:25;39.30;;;19.10;;
67640;SDS011;54434;50.096;20.082;2023-03-02T11:08:07;37.00;;;17.70;;
67640;SDS011;54434;50.096;20.082;2023-03-02T11:10:55;34.30;;;16.20;;
67640;SDS011;54434;50.096;20.082;2023-03-02T11:13:36;32.50;;;16.50;;
67640;SDS011;54434;50.096;20.082;2023-03-02T11:16:29;32.80;;;15.60;;
67640;SDS011;54434;50.096;20.082;2023-03-02T11:19:12;38.40;;;17.40;;
67640;SDS011;54434;50.096;20.082;2023-03-02T11:21:57;35.20;;;16.80;;
67640;SDS011;54434;50.096;20.082;2023-03-02T11:24:43;30.80;;;15.90;;
67640;SDS011;54434;50.096;20.082;2023-03-02T11:27:28;29.10;;;13.70;;
67640;SDS011;54434;50.096;20.082;2023-03-02T11:30:13;35.20;;;16.80;;
67640;SDS011;54434;50.096;20.082;2023-03-02T11:32:59;33.10;;;15.70;;
67640;SDS011;54434;50.096;20.082;2023-03-02T11:35:46;31.20;;;15.10;;
67640;SDS011;54434;50.096;20.082;2023-03-02T11:38:27;34.70;;;12.50;;
67640;SDS011;54434;50.096;20.082;2023-03-02T11:41:17;25.40;;;13.60;;
67640;SDS011;54434;50.096;20.082;2023-03-02T11:44:11;25.50;;;12.10;;
67640;SDS011;54434;50.096;20.082;2023-03-02T11:46:52;26.30;;;14.20;;
67640;SDS011;54434;50.096;20.082;2023-03-02T11:49:41;27.20;;;12.60;;
67640;SDS011;54434;50.096;20.082;2023-03-02T11:52:23;29.30;;;14.70;;
67640;SDS011;54434;50.096;20.082;2023-03-02T11:55:15;31.20;;;14.60;;
67640;SDS011;54434;50.096;20.082;2023-03-02T11:57:57;27.10;;;13.10;;
67640;SDS011;54434;50.096;20.082;2023-03-02T12:00:39;29.40;;;13.90;;
67640;SDS011;54434;50.096;20.082;2023-03-02T12:03:36;26.80;;;13.80;;
67640;SDS011;54434;50.096;20.082;2023-03-02T12:06:37;26.90;;;14.20;;
67640;SDS011;54434;50.096;20.082;2023-03-02T12:09:33;30.50;;;14.80;;
67640;SDS011;54434;50.096;20.082;2023-03-02T12:12:34;30.20;;;14.40;;
67640;SDS011;54434;50.096;20.082;2023-03-02T12:15:37;23.00;;;12.10;;
67640;SDS011;54434;50.096;20.082;2023-03-02T12:18:43;26.60;;;12.90;;
67640;SDS011;54434;50.096;20.082;2023-03-02T12:21:23;21.60;;;11.70;;
67640;SDS011;54434;50.096;20.082;2023-03-02T12:24:03;29.40;;;14.00;;
67640;SDS011;54434;50.096;20.082;2023-03-02T12:26:39;28.80;;;14.10;;
67640;SDS011;54434;50.096;20.082;2023-03-02T12:29:25;30.40;;;14.60;;
67640;SDS011;54434;50.096;20.082;2023-03-02T12:32:24;25.60;;;13.00;;
67640;SDS011;54434;50.096;20.082;2023-03-02T12:35:08;26.30;;;12.10;;
67640;SDS011;54434;50.096;20.082;2023-03-02T12:37:50;25.70;;;11.10;;
67640;SDS011;54434;50.096;20.082;2023-03-02T12:40:58;24.30;;;11.30;;
67640;SDS011;54434;50.096;20.082;2023-03-02T12:43:48;23.40;;;11.20;;
67640;SDS011;54434;50.096;20.082;2023-03-02T12:46:36;18.10;;;8.80;;
67640;SDS011;54434;50.096;20.082;2023-03-02T12:49:28;22.20;;;10.30;;
67640;SDS011;54434;50.096;20.082;2023-03-02T12:52:28;21.50;;;10.60;;
67640;SDS011;54434;50.096;20.082;2023-03-02T12:55:16;22.60;;;11.10;;
67640;SDS011;54434;50.096;20.082;2023-03-02T12:57:55;27.50;;;12.30;;
67640;SDS011;54434;50.096;20.082;2023-03-02T13:00:34;20.50;;;9.90;;
67640;SDS011;54434;50.096;20.082;2023-03-02T13:03:16;21.10;;;10.60;;
67640;SDS011;54434;50.096;20.082;2023-03-02T13:06:00;21.10;;;10.20;;
67640;SDS011;54434;50.096;20.082;2023-03-02T13:08:38;22.40;;;11.10;;
67640;SDS011;54434;50.096;20.082;2023-03-02T13:11:21;24.30;;;11.70;;
67640;SDS011;54434;50.096;20.082;2023-03-02T13:14:01;22.80;;;11.60;;
67640;SDS011;54434;50.096;20.082;2023-03-02T13:17:01;27.40;;;14.30;;
67640;SDS011;54434;50.096;20.082;2023-03-02T13:19:38;25.40;;;12.50;;
67640;SDS011;54434;50.096;20.082;2023-03-02T13:22:15;28.50;;;13.10;;
67640;SDS011;54434;50.096;20.082;2023-03-02T13:24:58;28.50;;;13.40;;
67640;SDS011;54434;50.096;20.082;2023-03-02T13:27:37;26.30;;;13.40;;
67640;SDS011;54434;50.096;20.082;2023-03-02T13:30:29;26.40;;;13.60;;
67640;SDS011;54434;50.096;20.082;2023-03-02T13:33:19;30.00;;;14.00;;
67640;SDS011;54434;50.096;20.082;2023-03-02T13:36:00;30.00;;;13.70;;
67640;SDS011;54434;50.096;20.082;2023-03-02T13:38:38;29.10;;;13.60;;
67640;SDS011;54434;50.096;20.082;2023-03-02T13:41:25;25.80;;;13.00;;
67640;SDS011;54434;50.096;20.082;2023-03-02T13:44:18;29.30;;;12.50;;
67640;SDS011;54434;50.096;20.082;2023-03-02T13:47:00;29.50;;;14.10;;
67640;SDS011;54434;50.096;20.082;2023-03-02T13:49:37;24.50;;;12.60;;
67640;SDS011;54434;50.096;20.082;2023-03-02T13:52:28;30.30;;;13.80;;
67640;SDS011;54434;50.096;20.082;2023-03-02T13:55:11;22.50;;;12.00;;
67640;SDS011;54434;50.096;20.082;2023-03-02T13:57:49;26.80;;;12.40;;
67640;SDS011;54434;50.096;20.082;2023-03-02T14:00:31;27.20;;;14.00;;
67640;SDS011;54434;50.096;20.082;2023-03-02T14:03:23;29.30;;;13.70;;
67640;SDS011;54434;50.096;20.082;2023-03-02T14:06:00;26.00;;;13.20;;
67640;SDS011;54434;50.096;20.082;2023-03-02T14:08:38;28.30;;;13.60;;
67640;SDS011;54434;50.096;20.082;2023-03-02T14:11:28;26.20;;;12.70;;
67640;SDS011;54434;50.096;20.082;2023-03-02T14:14:23;26.10;;;12.40;;
67640;SDS011;54434;50.096;20.082;2023-03-02T14:17:01;24.90;;;12.30;;
67640;SDS011;54434;50.096;20.082;2023-03-02T14:19:40;25.90;;;11.70;;
67640;SDS011;54434;50.096;20.082;2023-03-02T14:22:16;22.90;;;11.60;;
67640;SDS011;54434;50.096;20.082;2023-03-02T14:24:53;22.90;;;11.30;;
67640;SDS011;54434;50.096;20.082;2023-03-02T14:27:30;20.60;;;10.80;;
67640;SDS011;54434;50.096;20.082;2023-03-02T14:30:15;26.70;;;12.10;;
67640;SDS011;54434;50.096;20.082;2023-03-02T14:32:54;27.50;;;12.50;;
67640;SDS011;54434;50.096;20.082;2023-03-02T14:35:30;26.30;;;12.70;;
67640;SDS011;54434;50.096;20.082;2023-03-02T14:38:07;22.40;;;11.60;;
67640;SDS011;54434;50.096;20.082;2023-03-02T14:40:45;23.50;;;11.50;;
67640;SDS011;54434;50.096;20.082;2023-03-02T14:43:21;23.40;;;11.90;;
67640;SDS011;54434;50.096;20.082;2023-03-02T14:45:58;22.60;;;11.60;;
67640;SDS011;54434;50.096;20.082;2023-03-02T14:48:34;24.90;;;11.80;;
67640;SDS011;54434;50.096;20.082;2023-03-02T14:51:19;25.90;;;12.40;;
67640;SDS011;54434;50.096;20.082;2023-03-02T14:53:59;23.60;;;12.30;;
67640;SDS011;54434;50.096;20.082;2023-03-02T14:56:38;24.40;;;12.30;;
67640;SDS011;54434;50.096;20.082;2023-03-02T14:59:16;23.00;;;11.80;;
67640;SDS011;54434;50.096;20.082;2023-03-02T15:01:52;23.80;;;12.90;;
67640;SDS011;54434;50.096;20.082;2023-03-02T15:04:31;26.90;;;12.50;;
67640;SDS011;54434;50.096;20.082;2023-03-02T15:07:11;26.20;;;12.70;;
67640;SDS011;54434;50.096;20.082;2023-03-02T15:09:54;26.70;;;13.40;;
67640;SDS011;54434;50.096;20.082;2023-03-02T15:12:31;25.90;;;12.90;;
67640;SDS011;54434;50.096;20.082;2023-03-02T15:15:10;24.90;;;12.80;;
67640;SDS011;54434;50.096;20.082;2023-03-02T15:17:46;23.00;;;13.00;;
67640;SDS011;54434;50.096;20.082;2023-03-02T15:20:23;27.70;;;13.50;;
67640;SDS011;54434;50.096;20.082;2023-03-02T15:23:01;26.30;;;12.60;;
67640;SDS011;54434;50.096;20.082;2023-03-02T15:25:37;25.80;;;13.50;;